sensor_id;sensor_type;location;lat;lon;timestamp;P1;durP1;ratioP1;P2;durP2;ratioP2
13085;SDS011;6609;49.882;8.664;2022-07-22T00:01:31;6.43;;;5.47;;
13085;SDS011;6609;49.882;8.664;2022-07-22T00:03:58;8.07;;;5.63;;
13085;SDS011;6609;49.882;8.664;2022-07-22T00:06:26;6.53;;;5.40;;
13085;SDS011;6609;49.882;8.664;2022-07-22T00:08:53;6.47;;;5.20;;
13085;SDS011;6609;49.882;8.664;2022-07-22T00:11:22;7.03;;;5.50;;
13085;SDS011;6609;49.882;8.664;2022-07-22T00:13:48;7.10;;;4.80;;
13085;SDS011;6609;49.882;8.664;2022-07-22T00:16:15;6.50;;;5.07;;
13085;SDS011;6609;49.882;8.664;2022-07-22T00:18:42;7.30;;;5.07;;
13085;SDS011;6609;49.882;8.664;2022-07-22T00:21:09;8.20;;;5.17;;
13085;SDS011;6609;49.882;8.664;2022-07-22T00:23:36;6.00;;;5.17;;
13085;SDS011;6609;49.882;8.664;2022-07-22T00:26:03;5.57;;;4.97;;
13085;SDS011;6609;49.882;8.664;2022-07-22T00:28:31;8.80;;;5.57;;
13085;SDS011;6609;49.882;8.664;2022-07-22T00:30:58;7.23;;;6.00;;
13085;SDS011;6609;49.882;8.664;2022-07-22T00:33:25;7.73;;;5.40;;
13085;SDS011;6609;49.882;8.664;2022-07-22T00:35:52;7.67;;;5.90;;
13085;SDS011;6609;49.882;8.664;2022-07-22T00:38:19;8.50;;;5.33;;
13085;SDS011;6609;49.882;8.664;2022-07-22T00:40:46;9.07;;;5.47;;
13085;SDS011;6609;49.882;8.664;2022-07-22T00:43:13;5.63;;;5.13;;
13085;SDS011;6609;49.882;8.664;2022-07-22T00:45:41;5.67;;;4.67;;
13085;SDS011;6609;49.882;8.664;2022-07-22T00:48:08;7.67;;;5.13;;
13085;SDS011;6609;49.882;8.664;2022-07-22T00:50:34;9.13;;;5.43;;
13085;SDS011;6609;49.882;8.664;2022-07-22T00:53:02;7.63;;;4.90;;
13085;SDS011;6609;49.882;8.664;2022-07-22T00:55:29;10.43;;;5.57;;
13085;SDS011;6609;49.882;8.664;2022-07-22T00:57:56;6.77;;;5.10;;
13085;SDS011;6609;49.882;8.664;2022-07-22T01:00:22;9.33;;;5.47;;
13085;SDS011;6609;49.882;8.664;2022-07-22T01:02:51;8.70;;;5.80;;
13085;SDS011;6609;49.882;8.664;2022-07-22T01:05:18;8.77;;;5.00;;
13085;SDS011;6609;49.882;8.664;2022-07-22T01:07:45;8.47;;;5.23;;
13085;SDS011;6609;49.882;8.664;2022-07-22T01:10:13;6.93;;;5.47;;
13085;SDS011;6609;49.882;8.664;2022-07-22T01:12:40;8.30;;;5.90;;
13085;SDS011;6609;49.882;8.664;2022-07-22T01:15:07;6.67;;;5.30;;
13085;SDS011;6609;49.882;8.664;2022-07-22T01:17:34;10.17;;;5.60;;
13085;SDS011;6609;49.882;8.664;2022-07-22T01:20:03;8.87;;;5.87;;
13085;SDS011;6609;49.882;8.664;2022-07-22T01:22:31;6.67;;;5.40;;
13085;SDS011;6609;49.882;8.664;2022-07-22T01:24:58;8.50;;;5.77;;
13085;SDS011;6609;49.882;8.664;2022-07-22T01:27:25;6.90;;;4.60;;
13085;SDS011;6609;49.882;8.664;2022-07-22T01:29:53;8.40;;;6.00;;
13085;SDS011;6609;49.882;8.664;2022-07-22T01:32:20;7.63;;;5.07;;
13085;SDS011;6609;49.882;8.664;2022-07-22T01:34:47;8.80;;;5.40;;
13085;SDS011;6609;49.882;8.664;2022-07-22T01:37:15;8.13;;;5.53;;
13085;SDS011;6609;49.882;8.664;2022-07-22T01:39:41;6.83;;;5.33;;
13085;SDS011;6609;49.882;8.664;2022-07-22T01:42:08;7.10;;;5.57;;
13085;SDS011;6609;49.882;8.664;2022-07-22T01:44:35;8.33;;;6.03;;
13085;SDS011;6609;49.882;8.664;2022-07-22T01:47:02;7.17;;;5.77;;
13085;SDS011;6609;49.882;8.664;2022-07-22T01:49:29;8.00;;;5.63;;
13085;SDS011;6609;49.882;8.664;2022-07-22T01:51:57;7.73;;;5.57;;
13085;SDS011;6609;49.882;8.664;2022-07-22T01:54:25;7.20;;;5.93;;
13085;SDS011;6609;49.882;8.664;2022-07-22T01:56:52;7.97;;;5.57;;
13085;SDS011;6609;49.882;8.664;2022-07-22T01:59:19;8.20;;;5.13;;
13085;SDS011;6609;49.882;8.664;2022-07-22T02:01:46;9.57;;;5.50;;
13085;SDS011;6609;49.882;8.664;2022-07-22T02:04:13;9.33;;;6.53;;
13085;SDS011;6609;49.882;8.664;2022-07-22T02:06:40;7.07;;;5.70;;
13085;SDS011;6609;49.882;8.664;2022-07-22T02:09:07;8.43;;;6.43;;
13085;SDS011;6609;49.882;8.664;2022-07-22T02:11:35;6.93;;;5.50;;
13085;SDS011;6609;49.882;8.664;2022-07-22T02:14:02;7.93;;;6.40;;
13085;SDS011;6609;49.882;8.664;2022-07-22T02:16:29;6.93;;;5.37;;
13085;SDS011;6609;49.882;8.664;2022-07-22T02:18:56;7.23;;;5.50;;
13085;SDS011;6609;49.882;8.664;2022-07-22T02:21:23;11.53;;;5.90;;
13085;SDS011;6609;49.882;8.664;2022-07-22T02:23:50;6.20;;;5.50;;
13085;SDS011;6609;49.882;8.664;2022-07-22T02:26:16;8.07;;;5.63;;
13085;SDS011;6609;49.882;8.664;2022-07-22T02:28:45;11.67;;;5.57;;
13085;SDS011;6609;49.882;8.664;2022-07-22T02:31:12;7.70;;;5.47;;
13085;SDS011;6609;49.882;8.664;2022-07-22T02:33:39;6.50;;;5.37;;
13085;SDS011;6609;49.882;8.664;2022-07-22T02:36:06;10.00;;;6.47;;
13085;SDS011;6609;49.882;8.664;2022-07-22T02:38:33;10.23;;;5.80;;
13085;SDS011;6609;49.882;8.664;2022-07-22T02:41:00;7.50;;;5.10;;
13085;SDS011;6609;49.882;8.664;2022-07-22T02:43:27;8.87;;;5.87;;
13085;SDS011;6609;49.882;8.664;2022-07-22T02:45:55;7.63;;;5.67;;
13085;SDS011;6609;49.882;8.664;2022-07-22T02:48:22;9.70;;;5.77;;
13085;SDS011;6609;49.882;8.664;2022-07-22T02:50:49;7.83;;;5.70;;
13085;SDS011;6609;49.882;8.664;2022-07-22T02:53:16;9.03;;;6.23;;
13085;SDS011;6609;49.882;8.664;2022-07-22T02:55:42;7.77;;;5.57;;
13085;SDS011;6609;49.882;8.664;2022-07-22T02:58:09;7.47;;;5.73;;
13085;SDS011;6609;49.882;8.664;2022-07-22T03:00:36;7.00;;;4.87;;
13085;SDS011;6609;49.882;8.664;2022-07-22T03:03:05;7.40;;;4.90;;
13085;SDS011;6609;49.882;8.664;2022-07-22T03:05:32;8.50;;;5.87;;
13085;SDS011;6609;49.882;8.664;2022-07-22T03:07:59;7.53;;;5.33;;
13085;SDS011;6609;49.882;8.664;2022-07-22T03:10:26;7.47;;;4.90;;
13085;SDS011;6609;49.882;8.664;2022-07-22T03:12:53;7.20;;;5.30;;
13085;SDS011;6609;49.882;8.664;2022-07-22T03:15:20;6.97;;;5.13;;
13085;SDS011;6609;49.882;8.664;2022-07-22T03:17:46;5.70;;;4.97;;
13085;SDS011;6609;49.882;8.664;2022-07-22T03:20:14;7.13;;;5.77;;
13085;SDS011;6609;49.882;8.664;2022-07-22T03:22:42;6.13;;;4.63;;
13085;SDS011;6609;49.882;8.664;2022-07-22T03:25:09;10.33;;;5.60;;
13085;SDS011;6609;49.882;8.664;2022-07-22T03:27:36;7.20;;;5.57;;
13085;SDS011;6609;49.882;8.664;2022-07-22T03:30:03;7.67;;;5.60;;
13085;SDS011;6609;49.882;8.664;2022-07-22T03:32:30;8.60;;;4.60;;
13085;SDS011;6609;49.882;8.664;2022-07-22T03:34:57;7.87;;;5.60;;
13085;SDS011;6609;49.882;8.664;2022-07-22T03:37:26;6.57;;;4.97;;
13085;SDS011;6609;49.882;8.664;2022-07-22T03:39:52;6.77;;;5.53;;
13085;SDS011;6609;49.882;8.664;2022-07-22T03:42:19;5.83;;;5.00;;
13085;SDS011;6609;49.882;8.664;2022-07-22T03:44:46;8.73;;;5.40;;
13085;SDS011;6609;49.882;8.664;2022-07-22T03:47:16;8.80;;;5.27;;
13085;SDS011;6609;49.882;8.664;2022-07-22T03:49:44;5.93;;;5.30;;
13085;SDS011;6609;49.882;8.664;2022-07-22T03:52:11;9.10;;;5.83;;
13085;SDS011;6609;49.882;8.664;2022-07-22T03:54:39;7.70;;;5.70;;
13085;SDS011;6609;49.882;8.664;2022-07-22T03:57:06;6.03;;;5.33;;
13085;SDS011;6609;49.882;8.664;2022-07-22T03:59:33;6.43;;;5.10;;
13085;SDS011;6609;49.882;8.664;2022-07-22T04:02:00;8.50;;;6.03;;
13085;SDS011;6609;49.882;8.664;2022-07-22T04:04:27;10.40;;;6.60;;
13085;SDS011;6609;49.882;8.664;2022-07-22T04:06:54;8.93;;;6.40;;
13085;SDS011;6609;49.882;8.664;2022-07-22T04:09:21;8.60;;;5.93;;
13085;SDS011;6609;49.882;8.664;2022-07-22T04:11:49;8.83;;;5.93;;
13085;SDS011;6609;49.882;8.664;2022-07-22T04:14:16;12.47;;;6.37;;
13085;SDS011;6609;49.882;8.664;2022-07-22T04:16:43;6.63;;;5.87;;
13085;SDS011;6609;49.882;8.664;2022-07-22T04:19:10;7.17;;;6.27;;
13085;SDS011;6609;49.882;8.664;2022-07-22T04:21:38;11.03;;;6.20;;
13085;SDS011;6609;49.882;8.664;2022-07-22T04:24:05;9.47;;;7.03;;
13085;SDS011;6609;49.882;8.664;2022-07-22T04:26:32;11.27;;;7.37;;
13085;SDS011;6609;49.882;8.664;2022-07-22T04:29:02;10.60;;;6.37;;
13085;SDS011;6609;49.882;8.664;2022-07-22T04:31:29;8.00;;;6.00;;
13085;SDS011;6609;49.882;8.664;2022-07-22T04:33:57;7.93;;;5.50;;
13085;SDS011;6609;49.882;8.664;2022-07-22T04:36:24;9.87;;;5.83;;
13085;SDS011;6609;49.882;8.664;2022-07-22T04:38:51;6.87;;;5.40;;
13085;SDS011;6609;49.882;8.664;2022-07-22T04:41:18;9.67;;;5.90;;
13085;SDS011;6609;49.882;8.664;2022-07-22T04:43:44;8.00;;;6.23;;
13085;SDS011;6609;49.882;8.664;2022-07-22T04:46:12;9.87;;;6.47;;
13085;SDS011;6609;49.882;8.664;2022-07-22T04:48:39;7.77;;;6.07;;
13085;SDS011;6609;49.882;8.664;2022-07-22T04:51:06;9.20;;;6.03;;
13085;SDS011;6609;49.882;8.664;2022-07-22T04:53:33;6.97;;;6.03;;
13085;SDS011;6609;49.882;8.664;2022-07-22T04:56:00;7.33;;;5.87;;
13085;SDS011;6609;49.882;8.664;2022-07-22T04:58:27;7.67;;;6.43;;
13085;SDS011;6609;49.882;8.664;2022-07-22T05:00:54;8.20;;;6.27;;
13085;SDS011;6609;49.882;8.664;2022-07-22T05:03:23;9.23;;;6.40;;
13085;SDS011;6609;49.882;8.664;2022-07-22T05:05:50;8.03;;;6.17;;
13085;SDS011;6609;49.882;8.664;2022-07-22T05:08:17;9.70;;;6.10;;
13085;SDS011;6609;49.882;8.664;2022-07-22T05:10:45;8.70;;;6.53;;
13085;SDS011;6609;49.882;8.664;2022-07-22T05:13:12;9.00;;;6.17;;
13085;SDS011;6609;49.882;8.664;2022-07-22T05:15:39;7.53;;;6.20;;
13085;SDS011;6609;49.882;8.664;2022-07-22T05:18:06;9.40;;;6.37;;
13085;SDS011;6609;49.882;8.664;2022-07-22T05:20:34;12.07;;;6.63;;
13085;SDS011;6609;49.882;8.664;2022-07-22T05:23:02;8.93;;;6.53;;
13085;SDS011;6609;49.882;8.664;2022-07-22T05:25:29;9.70;;;6.33;;
13085;SDS011;6609;49.882;8.664;2022-07-22T05:27:56;8.40;;;6.17;;
13085;SDS011;6609;49.882;8.664;2022-07-22T05:30:23;7.57;;;6.40;;
13085;SDS011;6609;49.882;8.664;2022-07-22T05:32:50;8.27;;;6.37;;
13085;SDS011;6609;49.882;8.664;2022-07-22T05:35:17;9.23;;;6.83;;
13085;SDS011;6609;49.882;8.664;2022-07-22T05:37:45;12.00;;;6.27;;
13085;SDS011;6609;49.882;8.664;2022-07-22T05:40:12;11.73;;;6.70;;
13085;SDS011;6609;49.882;8.664;2022-07-22T05:42:39;7.23;;;6.30;;
13085;SDS011;6609;49.882;8.664;2022-07-22T05:45:06;8.07;;;7.00;;
13085;SDS011;6609;49.882;8.664;2022-07-22T05:47:33;10.03;;;6.30;;
13085;SDS011;6609;49.882;8.664;2022-07-22T05:50:00;10.03;;;6.20;;
13085;SDS011;6609;49.882;8.664;2022-07-22T05:52:28;8.90;;;6.07;;
13085;SDS011;6609;49.882;8.664;2022-07-22T05:54:58;8.40;;;6.23;;
13085;SDS011;6609;49.882;8.664;2022-07-22T05:57:25;9.73;;;6.20;;
13085;SDS011;6609;49.882;8.664;2022-07-22T05:59:52;9.57;;;6.70;;
13085;SDS011;6609;49.882;8.664;2022-07-22T06:02:19;9.17;;;7.20;;
13085;SDS011;6609;49.882;8.664;2022-07-22T06:04:46;7.53;;;6.37;;
13085;SDS011;6609;49.882;8.664;2022-07-22T06:07:13;10.00;;;6.00;;
13085;SDS011;6609;49.882;8.664;2022-07-22T06:09:41;7.17;;;6.07;;
13085;SDS011;6609;49.882;8.664;2022-07-22T06:12:09;8.00;;;6.10;;
13085;SDS011;6609;49.882;8.664;2022-07-22T06:14:35;11.57;;;6.60;;
13085;SDS011;6609;49.882;8.664;2022-07-22T06:17:03;10.47;;;6.10;;
13085;SDS011;6609;49.882;8.664;2022-07-22T06:19:30;8.40;;;5.93;;
13085;SDS011;6609;49.882;8.664;2022-07-22T06:21:57;9.40;;;6.73;;
13085;SDS011;6609;49.882;8.664;2022-07-22T06:24:24;9.67;;;6.07;;
13085;SDS011;6609;49.882;8.664;2022-07-22T06:26:51;7.90;;;6.37;;
13085;SDS011;6609;49.882;8.664;2022-07-22T06:29:19;9.90;;;5.20;;
13085;SDS011;6609;49.882;8.664;2022-07-22T06:31:46;5.20;;;4.40;;
13085;SDS011;6609;49.882;8.664;2022-07-22T06:34:13;9.03;;;4.87;;
13085;SDS011;6609;49.882;8.664;2022-07-22T06:36:40;6.47;;;4.70;;
13085;SDS011;6609;49.882;8.664;2022-07-22T06:39:07;7.83;;;4.77;;
13085;SDS011;6609;49.882;8.664;2022-07-22T06:41:34;7.30;;;4.80;;
13085;SDS011;6609;49.882;8.664;2022-07-22T06:44:01;7.27;;;4.40;;
13085;SDS011;6609;49.882;8.664;2022-07-22T06:46:30;6.10;;;4.50;;
13085;SDS011;6609;49.882;8.664;2022-07-22T06:48:56;8.07;;;4.40;;
13085;SDS011;6609;49.882;8.664;2022-07-22T06:51:23;7.30;;;4.40;;
13085;SDS011;6609;49.882;8.664;2022-07-22T06:53:50;4.93;;;4.17;;
13085;SDS011;6609;49.882;8.664;2022-07-22T06:56:17;6.70;;;4.10;;
13085;SDS011;6609;49.882;8.664;2022-07-22T06:58:44;6.07;;;4.13;;
13085;SDS011;6609;49.882;8.664;2022-07-22T07:01:10;6.13;;;4.40;;
13085;SDS011;6609;49.882;8.664;2022-07-22T07:03:38;6.63;;;4.40;;
13085;SDS011;6609;49.882;8.664;2022-07-22T07:06:06;8.57;;;4.47;;
13085;SDS011;6609;49.882;8.664;2022-07-22T07:08:36;4.40;;;4.00;;
13085;SDS011;6609;49.882;8.664;2022-07-22T07:11:03;6.53;;;4.33;;
13085;SDS011;6609;49.882;8.664;2022-07-22T07:13:30;5.47;;;4.00;;
13085;SDS011;6609;49.882;8.664;2022-07-22T07:15:57;5.37;;;3.90;;
13085;SDS011;6609;49.882;8.664;2022-07-22T07:18:24;6.27;;;4.13;;
13085;SDS011;6609;49.882;8.664;2022-07-22T07:20:52;5.30;;;4.10;;
13085;SDS011;6609;49.882;8.664;2022-07-22T07:23:18;6.77;;;3.30;;
13085;SDS011;6609;49.882;8.664;2022-07-22T07:25:45;4.63;;;3.90;;
13085;SDS011;6609;49.882;8.664;2022-07-22T07:28:12;3.67;;;3.30;;
13085;SDS011;6609;49.882;8.664;2022-07-22T07:30:39;4.17;;;3.77;;
13085;SDS011;6609;49.882;8.664;2022-07-22T07:33:06;4.40;;;3.43;;
13085;SDS011;6609;49.882;8.664;2022-07-22T07:35:33;4.57;;;4.07;;
13085;SDS011;6609;49.882;8.664;2022-07-22T07:38:01;6.23;;;4.17;;
13085;SDS011;6609;49.882;8.664;2022-07-22T07:40:27;5.03;;;4.00;;
13085;SDS011;6609;49.882;8.664;2022-07-22T07:42:54;5.07;;;4.47;;
13085;SDS011;6609;49.882;8.664;2022-07-22T07:45:21;5.17;;;4.67;;
13085;SDS011;6609;49.882;8.664;2022-07-22T07:47:48;6.10;;;5.03;;
13085;SDS011;6609;49.882;8.664;2022-07-22T07:50:15;8.20;;;4.87;;
13085;SDS011;6609;49.882;8.664;2022-07-22T07:52:42;6.67;;;4.40;;
13085;SDS011;6609;49.882;8.664;2022-07-22T07:55:14;5.43;;;4.57;;
13085;SDS011;6609;49.882;8.664;2022-07-22T07:57:41;8.83;;;4.50;;
13085;SDS011;6609;49.882;8.664;2022-07-22T08:00:09;5.13;;;4.13;;
13085;SDS011;6609;49.882;8.664;2022-07-22T08:02:37;5.03;;;4.53;;
13085;SDS011;6609;49.882;8.664;2022-07-22T08:05:04;5.30;;;4.80;;
13085;SDS011;6609;49.882;8.664;2022-07-22T08:07:31;6.40;;;4.50;;
13085;SDS011;6609;49.882;8.664;2022-07-22T08:09:58;4.97;;;4.10;;
13085;SDS011;6609;49.882;8.664;2022-07-22T08:12:26;4.57;;;4.17;;
13085;SDS011;6609;49.882;8.664;2022-07-22T08:14:54;5.87;;;4.50;;
13085;SDS011;6609;49.882;8.664;2022-07-22T08:17:20;4.50;;;4.10;;
13085;SDS011;6609;49.882;8.664;2022-07-22T08:19:47;4.97;;;3.90;;
13085;SDS011;6609;49.882;8.664;2022-07-22T08:22:14;4.93;;;4.20;;
13085;SDS011;6609;49.882;8.664;2022-07-22T08:24:42;6.07;;;4.23;;
13085;SDS011;6609;49.882;8.664;2022-07-22T08:27:09;5.73;;;4.63;;
13085;SDS011;6609;49.882;8.664;2022-07-22T08:29:37;4.93;;;4.43;;
13085;SDS011;6609;49.882;8.664;2022-07-22T08:32:04;4.60;;;3.97;;
13085;SDS011;6609;49.882;8.664;2022-07-22T08:34:31;5.77;;;4.60;;
13085;SDS011;6609;49.882;8.664;2022-07-22T08:36:58;8.07;;;5.40;;
13085;SDS011;6609;49.882;8.664;2022-07-22T08:39:25;6.83;;;4.50;;
13085;SDS011;6609;49.882;8.664;2022-07-22T08:41:51;6.33;;;4.50;;
13085;SDS011;6609;49.882;8.664;2022-07-22T08:44:18;4.23;;;3.83;;
13085;SDS011;6609;49.882;8.664;2022-07-22T08:46:47;5.40;;;4.53;;
13085;SDS011;6609;49.882;8.664;2022-07-22T08:49:14;5.97;;;4.33;;
13085;SDS011;6609;49.882;8.664;2022-07-22T08:51:42;6.10;;;4.20;;
13085;SDS011;6609;49.882;8.664;2022-07-22T08:54:09;5.20;;;4.10;;
13085;SDS011;6609;49.882;8.664;2022-07-22T08:56:36;4.57;;;4.00;;
13085;SDS011;6609;49.882;8.664;2022-07-22T08:59:03;4.00;;;3.60;;
13085;SDS011;6609;49.882;8.664;2022-07-22T09:01:30;4.37;;;3.57;;
13085;SDS011;6609;49.882;8.664;2022-07-22T09:03:58;4.83;;;4.13;;
13085;SDS011;6609;49.882;8.664;2022-07-22T09:06:26;6.83;;;4.47;;
13085;SDS011;6609;49.882;8.664;2022-07-22T09:08:58;4.13;;;3.73;;
13085;SDS011;6609;49.882;8.664;2022-07-22T09:11:27;4.63;;;3.90;;
13085;SDS011;6609;49.882;8.664;2022-07-22T09:13:56;4.57;;;3.60;;
13085;SDS011;6609;49.882;8.664;2022-07-22T09:16:40;4.50;;;4.03;;
13085;SDS011;6609;49.882;8.664;2022-07-22T09:19:09;4.00;;;3.57;;
13085;SDS011;6609;49.882;8.664;2022-07-22T09:21:37;4.73;;;4.23;;
13085;SDS011;6609;49.882;8.664;2022-07-22T09:24:05;4.33;;;3.90;;
13085;SDS011;6609;49.882;8.664;2022-07-22T09:26:33;5.63;;;3.97;;
13085;SDS011;6609;49.882;8.664;2022-07-22T09:29:01;6.43;;;4.00;;
13085;SDS011;6609;49.882;8.664;2022-07-22T09:31:30;5.27;;;4.27;;
13085;SDS011;6609;49.882;8.664;2022-07-22T09:33:58;5.50;;;4.87;;
13085;SDS011;6609;49.882;8.664;2022-07-22T09:36:27;5.17;;;4.00;;
13085;SDS011;6609;49.882;8.664;2022-07-22T09:38:54;4.60;;;4.20;;
13085;SDS011;6609;49.882;8.664;2022-07-22T09:41:21;5.90;;;3.30;;
13085;SDS011;6609;49.882;8.664;2022-07-22T09:43:48;5.57;;;4.23;;
13085;SDS011;6609;49.882;8.664;2022-07-22T09:46:16;4.70;;;3.73;;
13085;SDS011;6609;49.882;8.664;2022-07-22T09:48:43;4.60;;;4.20;;
13085;SDS011;6609;49.882;8.664;2022-07-22T09:51:09;4.40;;;4.00;;
13085;SDS011;6609;49.882;8.664;2022-07-22T09:53:37;3.93;;;3.43;;
13085;SDS011;6609;49.882;8.664;2022-07-22T09:56:05;4.20;;;3.63;;
13085;SDS011;6609;49.882;8.664;2022-07-22T09:58:32;4.27;;;3.77;;
13085;SDS011;6609;49.882;8.664;2022-07-22T10:01:00;6.53;;;4.10;;
13085;SDS011;6609;49.882;8.664;2022-07-22T10:03:30;4.43;;;3.70;;
13085;SDS011;6609;49.882;8.664;2022-07-22T10:05:58;6.43;;;3.80;;
13085;SDS011;6609;49.882;8.664;2022-07-22T10:08:27;4.20;;;3.83;;
13085;SDS011;6609;49.882;8.664;2022-07-22T10:11:00;4.37;;;3.40;;
13085;SDS011;6609;49.882;8.664;2022-07-22T10:13:28;5.13;;;3.93;;
13085;SDS011;6609;49.882;8.664;2022-07-22T10:15:56;5.57;;;3.70;;
13085;SDS011;6609;49.882;8.664;2022-07-22T10:18:23;4.60;;;3.90;;
13085;SDS011;6609;49.882;8.664;2022-07-22T10:21:03;4.27;;;3.70;;
13085;SDS011;6609;49.882;8.664;2022-07-22T10:23:31;5.10;;;3.23;;
13085;SDS011;6609;49.882;8.664;2022-07-22T10:26:00;4.87;;;3.87;;
13085;SDS011;6609;49.882;8.664;2022-07-22T10:28:28;5.63;;;3.73;;
13085;SDS011;6609;49.882;8.664;2022-07-22T10:31:16;4.13;;;3.10;;
13085;SDS011;6609;49.882;8.664;2022-07-22T10:33:44;3.63;;;3.10;;
13085;SDS011;6609;49.882;8.664;2022-07-22T10:36:14;5.73;;;3.47;;
13085;SDS011;6609;49.882;8.664;2022-07-22T10:39:01;3.70;;;3.37;;
13085;SDS011;6609;49.882;8.664;2022-07-22T10:41:32;4.17;;;3.77;;
13085;SDS011;6609;49.882;8.664;2022-07-22T10:44:01;4.20;;;3.60;;
13085;SDS011;6609;49.882;8.664;2022-07-22T10:49:18;4.23;;;3.30;;
13085;SDS011;6609;49.882;8.664;2022-07-22T10:57:36;3.70;;;3.17;;
13085;SDS011;6609;49.882;8.664;2022-07-22T11:00:03;3.37;;;3.07;;
13085;SDS011;6609;49.882;8.664;2022-07-22T11:02:31;3.57;;;3.03;;
13085;SDS011;6609;49.882;8.664;2022-07-22T11:04:59;4.67;;;3.43;;
13085;SDS011;6609;49.882;8.664;2022-07-22T11:07:26;4.53;;;3.37;;
13085;SDS011;6609;49.882;8.664;2022-07-22T11:10:07;3.40;;;2.83;;
13085;SDS011;6609;49.882;8.664;2022-07-22T11:12:36;5.53;;;3.10;;
13085;SDS011;6609;49.882;8.664;2022-07-22T11:15:03;2.97;;;2.77;;
13085;SDS011;6609;49.882;8.664;2022-07-22T11:17:32;3.40;;;3.10;;
13085;SDS011;6609;49.882;8.664;2022-07-22T11:19:59;5.13;;;3.20;;
13085;SDS011;6609;49.882;8.664;2022-07-22T11:22:27;4.33;;;3.33;;
13085;SDS011;6609;49.882;8.664;2022-07-22T11:24:54;3.30;;;3.00;;
13085;SDS011;6609;49.882;8.664;2022-07-22T11:27:22;3.83;;;3.07;;
13085;SDS011;6609;49.882;8.664;2022-07-22T11:29:51;3.43;;;3.00;;
13085;SDS011;6609;49.882;8.664;2022-07-22T11:32:19;6.37;;;4.13;;
13085;SDS011;6609;49.882;8.664;2022-07-22T11:34:46;4.97;;;3.57;;
13085;SDS011;6609;49.882;8.664;2022-07-22T11:37:14;3.60;;;3.17;;
13085;SDS011;6609;49.882;8.664;2022-07-22T11:39:41;3.53;;;3.20;;
13085;SDS011;6609;49.882;8.664;2022-07-22T11:42:08;3.97;;;3.63;;
13085;SDS011;6609;49.882;8.664;2022-07-22T11:44:36;3.20;;;2.90;;
13085;SDS011;6609;49.882;8.664;2022-07-22T11:47:06;3.40;;;3.10;;
13085;SDS011;6609;49.882;8.664;2022-07-22T11:49:34;3.03;;;2.80;;
13085;SDS011;6609;49.882;8.664;2022-07-22T11:52:02;4.10;;;3.70;;
13085;SDS011;6609;49.882;8.664;2022-07-22T11:54:32;7.53;;;3.10;;
13085;SDS011;6609;49.882;8.664;2022-07-22T11:56:59;4.50;;;3.13;;
13085;SDS011;6609;49.882;8.664;2022-07-22T11:59:27;3.87;;;3.13;;
13085;SDS011;6609;49.882;8.664;2022-07-22T12:01:54;4.70;;;3.07;;
13085;SDS011;6609;49.882;8.664;2022-07-22T12:04:23;5.63;;;3.43;;
13085;SDS011;6609;49.882;8.664;2022-07-22T12:06:51;3.93;;;3.03;;
13085;SDS011;6609;49.882;8.664;2022-07-22T12:09:20;3.70;;;3.40;;
13085;SDS011;6609;49.882;8.664;2022-07-22T12:11:48;3.83;;;3.50;;
13085;SDS011;6609;49.882;8.664;2022-07-22T12:14:18;4.43;;;3.97;;
13085;SDS011;6609;49.882;8.664;2022-07-22T12:16:52;4.67;;;4.07;;
13085;SDS011;6609;49.882;8.664;2022-07-22T12:19:23;3.80;;;3.50;;
13085;SDS011;6609;49.882;8.664;2022-07-22T12:21:50;4.07;;;3.37;;
13085;SDS011;6609;49.882;8.664;2022-07-22T12:24:24;6.13;;;3.50;;
13085;SDS011;6609;49.882;8.664;2022-07-22T12:26:52;3.93;;;3.60;;
13085;SDS011;6609;49.882;8.664;2022-07-22T12:29:21;4.00;;;3.60;;
13085;SDS011;6609;49.882;8.664;2022-07-22T12:31:50;4.37;;;3.60;;
13085;SDS011;6609;49.882;8.664;2022-07-22T12:34:29;3.90;;;3.50;;
13085;SDS011;6609;49.882;8.664;2022-07-22T12:36:58;3.87;;;2.83;;
13085;SDS011;6609;49.882;8.664;2022-07-22T12:39:27;4.30;;;3.90;;
13085;SDS011;6609;49.882;8.664;2022-07-22T12:41:54;3.60;;;3.30;;
13085;SDS011;6609;49.882;8.664;2022-07-22T12:44:23;5.53;;;3.30;;
13085;SDS011;6609;49.882;8.664;2022-07-22T12:46:51;4.77;;;3.47;;
13085;SDS011;6609;49.882;8.664;2022-07-22T12:49:19;3.63;;;3.20;;
13085;SDS011;6609;49.882;8.664;2022-07-22T12:54:38;4.63;;;3.10;;
13085;SDS011;6609;49.882;8.664;2022-07-22T12:57:07;5.13;;;3.70;;
13085;SDS011;6609;49.882;8.664;2022-07-22T12:59:34;5.50;;;3.17;;
13085;SDS011;6609;49.882;8.664;2022-07-22T13:02:01;4.40;;;3.30;;
13085;SDS011;6609;49.882;8.664;2022-07-22T13:04:28;3.87;;;3.40;;
13085;SDS011;6609;49.882;8.664;2022-07-22T13:06:55;4.80;;;3.63;;
13085;SDS011;6609;49.882;8.664;2022-07-22T13:09:23;7.73;;;4.33;;
13085;SDS011;6609;49.882;8.664;2022-07-22T13:11:50;6.90;;;3.93;;
13085;SDS011;6609;49.882;8.664;2022-07-22T13:14:16;4.60;;;4.00;;
13085;SDS011;6609;49.882;8.664;2022-07-22T13:16:43;4.77;;;3.60;;
13085;SDS011;6609;49.882;8.664;2022-07-22T13:19:10;7.20;;;3.93;;
13085;SDS011;6609;49.882;8.664;2022-07-22T13:21:37;4.87;;;3.70;;
13085;SDS011;6609;49.882;8.664;2022-07-22T13:24:05;4.67;;;4.07;;
13085;SDS011;6609;49.882;8.664;2022-07-22T13:26:33;5.10;;;3.60;;
13085;SDS011;6609;49.882;8.664;2022-07-22T13:29:00;6.23;;;3.37;;
13085;SDS011;6609;49.882;8.664;2022-07-22T13:31:27;5.10;;;3.67;;
13085;SDS011;6609;49.882;8.664;2022-07-22T13:33:54;8.17;;;3.73;;
13085;SDS011;6609;49.882;8.664;2022-07-22T13:36:21;4.93;;;3.40;;
13085;SDS011;6609;49.882;8.664;2022-07-22T13:38:48;4.03;;;3.70;;
13085;SDS011;6609;49.882;8.664;2022-07-22T13:41:16;4.80;;;4.00;;
13085;SDS011;6609;49.882;8.664;2022-07-22T13:43:44;3.93;;;3.50;;
13085;SDS011;6609;49.882;8.664;2022-07-22T13:46:14;6.10;;;4.20;;
13085;SDS011;6609;49.882;8.664;2022-07-22T13:48:41;4.73;;;4.00;;
13085;SDS011;6609;49.882;8.664;2022-07-22T13:51:07;8.20;;;4.20;;
13085;SDS011;6609;49.882;8.664;2022-07-22T13:53:34;4.87;;;3.93;;
13085;SDS011;6609;49.882;8.664;2022-07-22T13:56:01;5.57;;;4.43;;
13085;SDS011;6609;49.882;8.664;2022-07-22T13:58:29;4.33;;;3.77;;
13085;SDS011;6609;49.882;8.664;2022-07-22T14:00:58;4.40;;;3.53;;
13085;SDS011;6609;49.882;8.664;2022-07-22T14:03:24;4.57;;;4.00;;
13085;SDS011;6609;49.882;8.664;2022-07-22T14:05:51;5.23;;;3.90;;
13085;SDS011;6609;49.882;8.664;2022-07-22T14:08:18;5.97;;;3.87;;
13085;SDS011;6609;49.882;8.664;2022-07-22T14:10:45;4.07;;;3.67;;
13085;SDS011;6609;49.882;8.664;2022-07-22T14:13:12;4.83;;;4.10;;
13085;SDS011;6609;49.882;8.664;2022-07-22T14:15:39;3.40;;;3.10;;
13085;SDS011;6609;49.882;8.664;2022-07-22T14:18:07;4.20;;;3.80;;
13085;SDS011;6609;49.882;8.664;2022-07-22T14:20:34;5.87;;;3.87;;
13085;SDS011;6609;49.882;8.664;2022-07-22T14:23:02;7.03;;;4.27;;
13085;SDS011;6609;49.882;8.664;2022-07-22T14:25:30;4.90;;;4.10;;
13085;SDS011;6609;49.882;8.664;2022-07-22T14:27:57;4.73;;;3.87;;
13085;SDS011;6609;49.882;8.664;2022-07-22T14:30:24;5.63;;;3.93;;
13085;SDS011;6609;49.882;8.664;2022-07-22T14:32:52;6.77;;;3.83;;
13085;SDS011;6609;49.882;8.664;2022-07-22T14:35:21;4.80;;;3.83;;
13085;SDS011;6609;49.882;8.664;2022-07-22T14:37:48;4.73;;;3.87;;
13085;SDS011;6609;49.882;8.664;2022-07-22T14:40:16;4.57;;;4.17;;
13085;SDS011;6609;49.882;8.664;2022-07-22T14:42:43;4.30;;;3.90;;
13085;SDS011;6609;49.882;8.664;2022-07-22T14:45:11;3.83;;;3.37;;
13085;SDS011;6609;49.882;8.664;2022-07-22T14:47:38;5.10;;;4.13;;
13085;SDS011;6609;49.882;8.664;2022-07-22T14:50:05;6.70;;;3.93;;
13085;SDS011;6609;49.882;8.664;2022-07-22T14:52:34;6.00;;;4.07;;
13085;SDS011;6609;49.882;8.664;2022-07-22T14:55:01;6.57;;;4.10;;
13085;SDS011;6609;49.882;8.664;2022-07-22T14:57:28;5.60;;;4.27;;
13085;SDS011;6609;49.882;8.664;2022-07-22T14:59:55;3.93;;;3.63;;
13085;SDS011;6609;49.882;8.664;2022-07-22T15:02:22;4.47;;;4.07;;
13085;SDS011;6609;49.882;8.664;2022-07-22T15:04:50;4.27;;;3.90;;
13085;SDS011;6609;49.882;8.664;2022-07-22T15:07:17;4.83;;;4.23;;
13085;SDS011;6609;49.882;8.664;2022-07-22T15:09:45;4.27;;;3.77;;
13085;SDS011;6609;49.882;8.664;2022-07-22T15:12:12;6.93;;;4.30;;
13085;SDS011;6609;49.882;8.664;2022-07-22T15:14:40;4.60;;;3.97;;